Time;durP1;ratioP1;P1;durP2;ratioP2;P2;SDS_P1;SDS_P2;PMS_P1;PMS_P2;Temp;Humidity;BMP_temperature;BMP_pressure;BME280_temperature;BME280_humidity;BME280_pressure;Samples;Min_cycle;Max_cycle;Signal;HPM_P1;HPM_P2
2023/08/31 00:01:52;;;;;;;3.90;1.53;;;;;;;18.82;75.62;99817.44;5092963;28;20174;-59
2023/08/31 00:04:18;;;;;;;2.60;1.60;;;;;;;18.87;75.22;99817.09;5104508;28;20672;-59
2023/08/31 00:06:45;;;;;;;4.57;1.43;;;;;;;19.05;74.67;99821.75;5099231;28;20623;-59
2023/08/31 00:09:12;;;;;;;4.50;1.60;;;;;;;19.20;73.89;99819.81;5088402;28;20592;-59
2023/08/31 00:11:38;;;;;;;5.20;1.83;;;;;;;19.12;74.29;99823.84;5090308;28;20432;-59
2023/08/31 00:14:03;;;;;;;5.00;1.67;;;;;;;19.07;74.38;99821.34;5087994;28;20424;-59
2023/08/31 00:16:29;;;;;;;5.70;2.23;;;;;;;19.05;74.20;99818.03;5095318;28;20174;-59
2023/08/31 00:18:56;;;;;;;4.33;1.73;;;;;;;19.05;73.94;99821.75;5107378;28;20335;-59
2023/08/31 00:21:22;;;;;;;5.40;2.23;;;;;;;19.04;74.27;99820.09;5105502;28;20244;-58
2023/08/31 00:23:47;;;;;;;4.60;1.87;;;;;;;18.91;74.81;99818.75;5087621;28;20420;-59
2023/08/31 00:26:13;;;;;;;4.90;1.93;;;;;;;18.98;74.23;99818.00;5108616;28;20185;-58
2023/08/31 00:28:40;;;;;;;6.37;2.00;;;;;;;19.00;74.25;99819.25;5092885;28;20210;-59
2023/08/31 00:31:05;;;;;;;4.03;1.90;;;;;;;18.86;74.33;99815.44;5087829;28;20421;-58
2023/08/31 00:33:33;;;;;;;4.53;1.80;;;;;;;19.05;73.83;99827.47;5106301;27;20382;-58
2023/08/31 00:36:01;;;;;;;4.27;1.83;;;;;;;19.08;73.71;99829.53;5088086;28;20558;-59
2023/08/31 00:38:27;;;;;;;4.30;1.80;;;;;;;18.95;74.17;99836.78;5089254;28;20423;-58
2023/08/31 00:40:53;;;;;;;4.10;1.80;;;;;;;19.09;73.25;99834.03;5087494;28;20416;-58
2023/08/31 00:43:18;;;;;;;3.03;1.70;;;;;;;19.10;73.42;99832.00;5110372;27;20432;-59
2023/08/31 00:45:44;;;;;;;3.17;1.60;;;;;;;19.26;72.66;99830.53;5107240;28;20482;-59
2023/08/31 00:48:10;;;;;;;3.70;2.00;;;;;;;19.32;72.27;99833.84;5089511;28;20242;-59
2023/08/31 00:50:36;;;;;;;2.90;1.83;;;;;;;19.21;72.47;99839.44;5089389;28;20201;-59
2023/08/31 00:53:03;;;;;;;6.40;2.37;;;;;;;19.10;73.06;99832.81;5109235;28;20423;-58
2023/08/31 00:55:29;;;;;;;7.17;2.53;;;;;;;19.15;72.79;99835.31;5100885;28;20486;-59
2023/08/31 00:57:55;;;;;;;7.63;2.07;;;;;;;19.12;73.12;99841.81;5088316;28;20412;-59
2023/08/31 01:01:04;;;;;;;4.77;1.87;;;;;;;18.92;73.65;99842.47;5088233;28;20265;-59
2023/08/31 01:04:02;;;;;;;5.73;1.90;;;;;;;19.09;72.91;99836.91;5093744;28;20818;-59
2023/08/31 01:06:36;;;;;;;5.93;1.90;;;;;;;19.14;72.46;99836.53;5093388;28;20475;-59
2023/08/31 01:09:20;;;;;;;6.17;2.13;;;;;;;19.30;71.84;99837.09;5082422;28;20802;-59
2023/08/31 01:12:05;;;;;;;5.13;2.20;;;;;;;19.19;72.64;99833.31;5109048;28;20770;-59
2023/08/31 01:14:38;;;;;;;5.53;1.90;;;;;;;19.33;72.12;99842.03;5107381;28;20400;-58
2023/08/31 01:17:04;;;;;;;8.23;2.40;;;;;;;19.28;72.10;99838.72;5107723;28;20533;-59
2023/08/31 01:19:48;;;;;;;5.10;2.40;;;;;;;19.17;72.54;99837.78;5074302;28;20467;-58
2023/08/31 01:22:42;;;;;;;4.90;2.33;;;;;;;19.11;72.88;99837.31;5096410;28;20229;-59
2023/08/31 01:25:09;;;;;;;5.27;1.70;;;;;;;19.06;73.09;99837.69;5087397;28;20439;-59
2023/08/31 01:27:34;;;;;;;5.40;3.00;;;;;;;19.12;72.91;99846.75;5088796;28;20428;-59
2023/08/31 01:30:00;;;;;;;3.80;1.70;;;;;;;19.02;73.34;99836.81;5067179;28;20412;-59
2023/08/31 01:32:25;;;;;;;5.30;2.20;;;;;;;19.10;73.01;99832.00;5076911;28;20181;-59
2023/08/31 01:34:51;;;;;;;6.53;2.20;;;;;;;19.18;72.41;99833.69;5102629;28;20181;-58
2023/08/31 01:37:27;;;;;;;4.70;1.87;;;;;;;19.17;72.73;99843.50;5106563;28;20274;-59
2023/08/31 01:39:54;;;;;;;5.10;2.00;;;;;;;19.18;72.48;99840.25;5103999;28;20430;-59
2023/08/31 01:42:20;;;;;;;4.83;2.33;;;;;;;19.09;72.32;99848.34;5115818;28;20522;-59
2023/08/31 01:44:48;;;;;;;5.67;2.13;;;;;;;18.95;73.12;99841.66;5094044;28;20407;-59
2023/08/31 01:47:13;;;;;;;4.53;2.20;;;;;;;18.96;73.34;99858.44;5094682;28;20542;-58
2023/08/31 01:49:39;;;;;;;4.43;2.23;;;;;;;19.03;72.95;99855.66;5086222;28;20459;-59
2023/08/31 01:52:05;;;;;;;3.40;1.93;;;;;;;18.90;73.62;99857.16;5087941;28;20652;-59
2023/08/31 01:54:30;;;;;;;15.60;2.40;;;;;;;18.95;73.38;99851.06;5093246;28;20177;-59
2023/08/31 01:56:56;;;;;;;4.60;2.03;;;;;;;18.74;74.09;99858.63;5089711;28;20180;-59
2023/08/31 01:59:21;;;;;;;5.43;2.70;;;;;;;18.75;74.32;99855.38;5111737;27;20166;-59
2023/08/31 02:01:46;;;;;;;5.60;1.97;;;;;;;18.86;74.14;99855.50;5122089;27;20178;-59
2023/08/31 02:04:12;;;;;;;7.37;2.50;;;;;;;18.78;74.13;99860.31;5107807;28;20178;-59
2023/08/31 02:06:37;;;;;;;3.43;2.10;;;;;;;18.68;74.88;99855.31;5108498;28;20198;-59
2023/08/31 02:09:03;;;;;;;4.10;2.10;;;;;;;18.76;74.52;99861.94;5110714;28;20186;-59
2023/08/31 02:11:28;;;;;;;6.93;2.00;;;;;;;18.84;74.21;99855.88;5111622;28;20640;-59
2023/08/31 02:13:54;;;;;;;5.40;2.10;;;;;;;18.69;74.88;99856.13;5111802;28;20231;-58
2023/08/31 02:16:19;;;;;;;3.80;2.23;;;;;;;18.60;75.49;99862.16;5106410;28;20166;-59
2023/08/31 02:18:45;;;;;;;3.50;1.73;;;;;;;18.51;75.63;99870.22;5090609;28;20182;-59
2023/08/31 02:21:10;;;;;;;5.53;2.50;;;;;;;18.43;76.05;99868.53;5090213;28;20221;-59
2023/08/31 02:23:36;;;;;;;5.50;1.90;;;;;;;18.58;75.34;99870.31;5088756;28;20212;-59
2023/08/31 02:26:01;;;;;;;4.10;1.67;;;;;;;18.70;75.14;99870.03;5072792;28;20191;-59
2023/08/31 02:28:27;;;;;;;8.67;2.20;;;;;;;18.80;74.68;99874.19;5088863;28;20178;-59
2023/08/31 02:31:00;;;;;;;3.87;1.83;;;;;;;18.69;75.08;99867.56;5089039;28;20185;-59
2023/08/31 02:33:25;;;;;;;4.63;1.90;;;;;;;18.79;74.69;99873.41;5089349;28;20178;-59
2023/08/31 02:35:51;;;;;;;4.20;2.00;;;;;;;18.58;75.70;99878.91;5109470;28;20419;-59
2023/08/31 02:38:16;;;;;;;4.23;2.13;;;;;;;18.77;74.75;99875.00;5110745;28;20184;-59
2023/08/31 02:40:42;;;;;;;4.70;2.00;;;;;;;18.68;75.35;99883.91;5105106;28;20186;-60
2023/08/31 02:43:07;;;;;;;3.10;2.03;;;;;;;18.76;74.82;99884.81;5092713;28;20232;-59
2023/08/31 02:45:33;;;;;;;4.50;2.40;;;;;;;18.55;75.59;99885.38;5124499;27;20207;-59
2023/08/31 02:47:58;;;;;;;5.73;2.00;;;;;;;18.51;75.68;99878.81;5102269;27;20213;-59
2023/08/31 02:50:24;;;;;;;6.20;2.73;;;;;;;18.77;74.48;99887.25;5071912;28;20217;-58
2023/08/31 02:52:49;;;;;;;4.53;1.97;;;;;;;18.80;74.62;99886.47;5090290;28;20874;-59
2023/08/31 02:55:15;;;;;;;4.10;2.00;;;;;;;18.89;74.36;99884.13;5100237;28;20174;-59
2023/08/31 02:57:40;;;;;;;5.23;2.30;;;;;;;18.84;74.51;99880.78;5107609;27;20562;-59
2023/08/31 03:00:10;;;;;;;4.87;2.10;;;;;;;18.71;74.76;99879.44;5111438;27;20625;-58
2023/08/31 03:02:36;;;;;;;6.13;1.67;;;;;;;18.94;73.86;99880.06;5113017;27;20226;-59
2023/08/31 03:05:02;;;;;;;3.90;2.10;;;;;;;18.92;74.26;99888.25;5106159;28;20818;-58
2023/08/31 03:07:27;;;;;;;5.00;2.53;;;;;;;18.93;74.34;99884.16;5090116;28;20366;-58
2023/08/31 03:09:52;;;;;;;4.03;2.00;;;;;;;18.93;74.01;99889.88;5071728;28;20189;-58
2023/08/31 03:12:18;;;;;;;4.90;1.97;;;;;;;18.63;75.33;99898.56;5107673;27;20243;-58
2023/08/31 03:14:43;;;;;;;5.73;2.13;;;;;;;18.70;75.21;99898.63;5109796;28;20222;-59
2023/08/31 03:17:09;;;;;;;4.93;1.97;;;;;;;18.62;75.53;99894.03;5109831;28;20625;-59
2023/08/31 03:19:34;;;;;;;4.87;2.50;;;;;;;18.58;75.81;99907.50;5088838;28;20182;-59
2023/08/31 03:22:00;;;;;;;6.77;2.23;;;;;;;18.68;75.49;99897.38;5090481;28;20302;-59
2023/08/31 03:24:25;;;;;;;5.20;2.43;;;;;;;18.52;76.33;99908.22;5070382;28;20212;-58
2023/08/31 03:26:51;;;;;;;6.63;2.47;;;;;;;18.68;75.37;99909.66;5088449;28;20555;-59
2023/08/31 03:29:16;;;;;;;3.70;2.20;;;;;;;18.40;76.67;99905.59;5093106;28;20683;-59
2023/08/31 03:31:41;;;;;;;3.17;1.60;;;;;;;18.22;77.79;99908.19;5072865;28;20271;-59
2023/08/31 03:34:07;;;;;;;7.03;2.07;;;;;;;18.62;75.79;99916.91;5109462;28;20186;-59
2023/08/31 03:36:32;;;;;;;5.27;2.60;;;;;;;18.62;75.84;99910.38;5095815;28;20178;-59
2023/08/31 03:38:58;;;;;;;4.23;2.00;;;;;;;18.54;76.22;99912.34;5089236;28;20178;-59
2023/08/31 03:41:24;;;;;;;4.50;2.10;;;;;;;18.63;75.74;99909.16;5071825;27;21100;-59
2023/08/31 03:43:49;;;;;;;3.93;1.90;;;;;;;18.61;75.69;99912.41;5127839;27;20671;-59
2023/08/31 03:46:15;;;;;;;5.23;2.40;;;;;;;18.71;75.29;99913.75;5122155;27;20197;-59
2023/08/31 03:48:40;;;;;;;4.63;1.80;;;;;;;18.76;75.23;99913.41;5105784;27;20175;-59
2023/08/31 03:51:06;;;;;;;9.33;2.50;;;;;;;18.70;75.39;99912.94;5089014;28;20171;-59
2023/08/31 03:53:31;;;;;;;9.17;3.07;;;;;;;18.76;75.19;99914.22;5090647;28;20173;-59
2023/08/31 03:55:57;;;;;;;8.07;2.10;;;;;;;18.59;76.35;99916.88;5100998;28;20178;-59
2023/08/31 03:58:22;;;;;;;4.30;1.80;;;;;;;18.63;75.95;99907.13;5088945;28;20191;-59
2023/08/31 04:00:51;;;;;;;3.13;1.70;;;;;;;18.60;76.05;99919.34;5091388;28;20197;-59
2023/08/31 04:03:16;;;;;;;4.40;2.10;;;;;;;18.75;75.17;99918.28;5102518;28;20181;-59
2023/08/31 04:05:42;;;;;;;11.03;2.27;;;;;;;18.83;74.81;99931.47;5115188;27;20462;-59
2023/08/31 04:08:07;;;;;;;6.30;2.10;;;;;;;18.74;75.15;99925.22;5113294;27;20174;-59
2023/08/31 04:10:33;;;;;;;6.03;2.23;;;;;;;18.64;75.75;99923.06;5108726;28;20174;-59
2023/08/31 04:12:58;;;;;;;11.10;2.40;;;;;;;18.75;75.36;99926.88;5108389;28;20174;-59
2023/08/31 04:15:24;;;;;;;3.67;2.10;;;;;;;18.87;74.53;99932.31;5092897;28;20189;-59
2023/08/31 04:17:52;;;;;;;4.33;2.30;;;;;;;18.96;73.97;99929.97;5087655;28;20735;-59
2023/08/31 04:20:17;;;;;;;9.70;2.30;;;;;;;19.00;74.03;99939.41;5087665;28;20167;-59
2023/08/31 04:22:43;;;;;;;6.23;2.33;;;;;;;18.93;74.20;99942.19;5071149;28;20464;-59
2023/08/31 04:25:08;;;;;;;6.93;2.50;;;;;;;18.99;73.77;99943.47;5087317;28;20179;-59
2023/08/31 04:27:34;;;;;;;4.47;1.73;;;;;;;18.83;74.63;99936.34;5087665;28;20166;-59
2023/08/31 04:30:00;;;;;;;5.70;2.17;;;;;;;18.68;75.21;99935.38;5091209;28;20178;-59
2023/08/31 04:32:26;;;;;;;4.53;2.43;;;;;;;18.67;75.10;99933.72;5090373;28;20188;-59
2023/08/31 04:34:51;;;;;;;8.67;2.20;;;;;;;18.55;75.85;99930.28;5107116;28;20416;-59
2023/08/31 04:37:17;;;;;;;7.43;2.17;;;;;;;18.46;75.99;99933.47;5103109;28;20200;-59
2023/08/31 04:39:43;;;;;;;6.27;2.53;;;;;;;18.67;75.10;99939.44;5108965;28;20256;-59
2023/08/31 04:42:08;;;;;;;5.60;2.33;;;;;;;18.34;76.72;99933.72;5102159;28;20182;-59
2023/08/31 04:44:34;;;;;;;8.13;2.57;;;;;;;18.55;75.88;99928.28;5088212;28;20182;-59
2023/08/31 04:47:00;;;;;;;6.43;2.10;;;;;;;18.76;74.70;99945.66;5106477;27;20240;-59
2023/08/31 04:49:26;;;;;;;4.87;2.20;;;;;;;18.65;75.35;99941.03;5103102;28;20459;-59
2023/08/31 04:51:52;;;;;;;5.40;1.87;;;;;;;18.38;76.57;99940.31;5091138;28;20191;-59
2023/08/31 04:54:17;;;;;;;4.10;2.10;;;;;;;18.42;76.19;99948.94;5109452;28;20415;-59
2023/08/31 04:56:43;;;;;;;4.30;2.03;;;;;;;18.55;75.95;99939.69;5104957;28;20234;-59
2023/08/31 04:59:08;;;;;;;3.40;1.93;;;;;;;18.39;76.00;99946.84;5087495;28;20218;-59
2023/08/31 05:01:34;;;;;;;5.13;2.20;;;;;;;18.54;76.02;99955.22;5095213;28;20235;-59
2023/08/31 05:03:59;;;;;;;6.80;2.47;;;;;;;18.26;76.89;99957.66;5105656;28;20189;-59
2023/08/31 05:06:24;;;;;;;6.40;2.50;;;;;;;18.36;76.87;99967.63;5085249;28;20201;-59
2023/08/31 05:08:50;;;;;;;4.87;2.37;;;;;;;18.46;76.22;99964.09;5088789;28;20189;-59
2023/08/31 05:11:15;;;;;;;5.40;2.67;;;;;;;18.35;76.85;99978.22;5085408;28;20155;-59
2023/08/31 05:13:44;;;;;;;5.33;2.30;;;;;;;18.49;76.01;99977.59;5086544;28;20174;-59
2023/08/31 05:16:10;;;;;;;5.37;1.80;;;;;;;18.42;76.62;99983.22;5085694;28;20178;-58
2023/08/31 05:18:35;;;;;;;3.97;1.73;;;;;;;18.49;76.30;99981.28;5089597;28;21049;-59
2023/08/31 05:21:02;;;;;;;7.50;2.57;;;;;;;18.40;76.43;99988.50;5095547;28;20172;-59
2023/08/31 05:23:27;;;;;;;6.53;2.40;;;;;;;18.55;75.82;99988.31;5107609;28;20272;-59
2023/08/31 05:25:52;;;;;;;6.87;2.83;;;;;;;18.38;76.78;99994.63;5106839;28;20970;-58
2023/08/31 05:28:18;;;;;;;10.93;2.70;;;;;;;18.42;76.59;100001.19;5102392;28;20178;-59
2023/08/31 05:30:50;;;;;;;6.20;2.17;;;;;;;18.41;76.90;99999.53;5092820;28;20228;-59
2023/08/31 05:33:17;;;;;;;6.60;2.40;;;;;;;18.50;76.62;100002.94;5106161;28;20308;-58
2023/08/31 05:35:42;;;;;;;8.40;2.70;;;;;;;18.53;76.14;99993.59;5103507;28;20508;-59
2023/08/31 05:38:07;;;;;;;6.20;2.77;;;;;;;18.40;76.93;99991.34;5106166;28;20428;-58
2023/08/31 05:40:33;;;;;;;6.27;2.83;;;;;;;18.49;76.63;99989.03;5110696;27;20862;-59
2023/08/31 05:42:58;;;;;;;12.53;2.50;;;;;;;18.28;77.71;99995.25;5104910;28;20186;-59
2023/08/31 05:45:24;;;;;;;4.80;2.30;;;;;;;18.36;77.36;100007.66;5104009;28;20201;-59
2023/08/31 05:47:49;;;;;;;5.77;2.67;;;;;;;18.39;77.08;100001.13;5105868;28;20179;-59
2023/08/31 05:50:15;;;;;;;5.70;2.40;;;;;;;18.42;76.66;100004.03;5111256;28;20202;-59
2023/08/31 05:52:43;;;;;;;6.17;2.97;;;;;;;18.62;76.23;99994.09;5102153;28;20178;-58
2023/08/31 05:55:09;;;;;;;4.80;2.37;;;;;;;18.29;77.78;99996.91;5102336;28;20223;-58
2023/08/31 05:57:35;;;;;;;7.03;2.70;;;;;;;18.39;77.42;100006.84;5062626;28;20462;-59
2023/08/31 06:00:00;;;;;;;3.63;1.93;;;;;;;18.61;76.01;100001.03;5098215;28;20428;-58
2023/08/31 06:02:26;;;;;;;6.83;2.60;;;;;;;18.14;78.12;99992.19;5107130;27;20189;-58
2023/08/31 06:04:51;;;;;;;8.00;2.50;;;;;;;18.19;78.06;99996.75;5110274;28;20170;-58
2023/08/31 06:07:17;;;;;;;4.20;2.17;;;;;;;17.95;79.58;100000.88;5098835;27;20202;-59
2023/08/31 06:09:42;;;;;;;4.90;1.97;;;;;;;17.90;79.81;100011.81;5105815;28;20182;-59
2023/08/31 06:12:08;;;;;;;5.97;2.40;;;;;;;17.95;80.92;100015.16;5098014;27;20185;-60
2023/08/31 06:14:33;;;;;;;6.97;3.20;;;;;;;18.33;80.18;100016.97;5110939;27;20201;-58
2023/08/31 06:16:59;;;;;;;7.90;3.33;;;;;;;19.07;80.93;100010.19;5091865;28;20634;-59
2023/08/31 06:19:24;;;;;;;12.93;4.13;;;;;;;18.56;80.88;100018.53;5074151;28;20183;-60
2023/08/31 06:21:50;;;;;;;7.73;3.93;;;;;;;18.96;80.75;100026.41;5108568;28;20222;-58
2023/08/31 06:24:15;;;;;;;17.13;3.60;;;;;;;19.04;80.67;100014.66;5101772;28;20543;-58
2023/08/31 06:26:41;;;;;;;8.97;3.50;;;;;;;18.76;81.37;100019.22;5088040;28;20190;-58
2023/08/31 06:29:08;;;;;;;12.87;3.50;;;;;;;18.94;80.33;100026.81;5086411;28;20181;-59
2023/08/31 06:31:34;;;;;;;7.90;3.17;;;;;;;18.93;79.10;100028.03;5106609;28;20182;-58
2023/08/31 06:33:59;;;;;;;7.83;3.33;;;;;;;18.98;79.31;100018.25;5096849;28;20456;-58
2023/08/31 06:36:24;;;;;;;5.47;2.80;;;;;;;18.97;79.30;100017.41;5083229;28;20524;-58
2023/08/31 06:38:50;;;;;;;6.40;3.03;;;;;;;18.75;78.80;100026.13;5105128;28;20178;-58
2023/08/31 06:41:15;;;;;;;5.50;2.77;;;;;;;18.63;78.70;100047.25;5122439;27;20176;-57
2023/08/31 06:43:41;;;;;;;4.23;2.40;;;;;;;18.95;78.58;100041.91;5129415;27;20165;-58
2023/08/31 06:46:06;;;;;;;9.53;2.83;;;;;;;18.66;79.80;100035.00;5102595;27;20255;-59
2023/08/31 06:48:32;;;;;;;5.47;3.00;;;;;;;18.34;80.30;100042.31;5098183;28;20197;-58
2023/08/31 06:50:57;;;;;;;4.07;2.50;;;;;;;18.52;79.84;100046.25;5099525;28;20205;-58
2023/08/31 06:53:23;;;;;;;5.53;2.70;;;;;;;19.04;78.50;100040.41;5104036;27;20200;-59
2023/08/31 06:55:49;;;;;;;6.60;3.37;;;;;;;19.10;78.40;100046.59;5100570;28;20520;-59
2023/08/31 06:58:14;;;;;;;5.73;2.60;;;;;;;18.75;79.20;100054.72;5091123;28;20181;-59
2023/08/31 07:00:40;;;;;;;4.83;2.50;;;;;;;19.03;77.65;100057.97;5103970;28;20420;-59
2023/08/31 07:03:06;;;;;;;4.83;2.23;;;;;;;18.66;78.77;100057.88;5107402;28;20525;-59
2023/08/31 07:05:35;;;;;;;6.27;2.60;;;;;;;18.84;78.77;100056.09;5099593;28;20189;-58
2023/08/31 07:08:02;;;;;;;4.83;2.77;;;;;;;19.03;78.50;100055.09;5104245;28;20287;-59
2023/08/31 07:10:28;;;;;;;8.20;3.10;;;;;;;19.06;78.50;100066.59;5097891;28;20436;-59
2023/08/31 07:12:53;;;;;;;6.00;2.77;;;;;;;18.87;78.70;100069.59;5088939;27;20450;-59
2023/08/31 07:15:19;;;;;;;9.53;2.73;;;;;;;19.13;78.29;100066.69;5106121;28;20211;-59
2023/08/31 07:17:44;;;;;;;3.50;2.27;;;;;;;19.04;78.26;100057.56;5093288;28;20228;-58
2023/08/31 07:20:11;;;;;;;6.47;2.30;;;;;;;18.82;79.23;100066.28;5110572;27;20178;-60
2023/08/31 07:22:37;;;;;;;10.53;2.90;;;;;;;18.79;78.76;100062.16;5083533;28;20251;-58
2023/08/31 07:25:03;;;;;;;6.33;2.40;;;;;;;19.07;77.79;100068.22;5039408;28;20440;-59
2023/08/31 07:27:29;;;;;;;8.93;3.17;;;;;;;18.71;78.75;100074.69;5105201;28;20281;-59
2023/08/31 07:29:55;;;;;;;7.30;3.03;;;;;;;18.84;77.37;100078.97;5108707;28;20918;-59
2023/08/31 07:32:20;;;;;;;5.10;2.73;;;;;;;18.84;78.03;100081.00;5101915;28;20189;-59
2023/08/31 07:34:45;;;;;;;4.97;2.40;;;;;;;19.07;77.03;100078.84;5096119;28;20170;-59
2023/08/31 07:37:11;;;;;;;5.60;2.40;;;;;;;19.25;76.12;100080.75;5100247;27;20216;-58
2023/08/31 07:39:36;;;;;;;5.57;2.33;;;;;;;19.09;76.75;100091.56;5090940;28;20178;-58
2023/08/31 07:42:02;;;;;;;3.37;1.90;;;;;;;19.23;76.02;100094.63;5094451;28;20920;-59
2023/08/31 07:44:27;;;;;;;5.27;2.67;;;;;;;19.15;74.75;100101.44;5095542;28;20640;-59
2023/08/31 07:46:53;;;;;;;9.50;2.80;;;;;;;18.85;75.32;100097.78;5071669;28;20656;-59
2023/08/31 07:49:18;;;;;;;6.33;2.47;;;;;;;18.91;74.74;100099.09;5100278;28;20206;-59
2023/08/31 07:51:44;;;;;;;5.40;2.37;;;;;;;18.92;74.25;100099.91;5088410;28;20179;-59
2023/08/31 07:54:09;;;;;;;7.17;2.43;;;;;;;18.99;73.61;100106.56;5100544;28;20184;-59
2023/08/31 07:56:34;;;;;;;7.83;3.03;;;;;;;18.97;73.94;100108.97;5106311;28;20193;-59
2023/08/31 07:59:00;;;;;;;11.87;2.37;;;;;;;18.93;73.83;100116.69;5090567;28;20177;-59
2023/08/31 08:01:25;;;;;;;6.10;2.57;;;;;;;19.06;73.20;100123.00;5100876;28;20174;-58
2023/08/31 08:03:51;;;;;;;5.43;2.30;;;;;;;18.80;73.79;100125.88;5097021;28;20212;-59
2023/08/31 08:06:16;;;;;;;12.27;3.20;;;;;;;18.85;73.74;100125.53;5088300;28;20237;-60
2023/08/31 08:08:42;;;;;;;7.73;2.73;;;;;;;19.07;73.47;100131.16;5077241;28;20788;-59
2023/08/31 08:11:07;;;;;;;9.90;2.97;;;;;;;18.95;74.17;100122.84;5099160;28;20185;-60
2023/08/31 08:13:33;;;;;;;10.60;2.73;;;;;;;19.22;73.59;100127.31;5096655;28;20177;-58
2023/08/31 08:15:58;;;;;;;8.20;2.30;;;;;;;19.24;72.61;100124.91;5093979;28;20177;-59
2023/08/31 08:18:24;;;;;;;9.73;2.40;;;;;;;19.12;72.85;100130.81;5087598;28;20188;-60
2023/08/31 08:20:52;;;;;;;10.40;2.80;;;;;;;19.14;72.53;100130.44;5096677;28;20231;-59
2023/08/31 08:23:18;;;;;;;5.50;2.73;;;;;;;19.24;72.29;100127.75;5096424;28;20222;-59
2023/08/31 08:25:43;;;;;;;8.07;3.07;;;;;;;19.20;71.92;100126.03;5088007;28;20961;-59
2023/08/31 08:28:09;;;;;;;9.60;3.27;;;;;;;19.13;70.82;100128.81;5083123;28;20178;-59
2023/08/31 08:30:34;;;;;;;7.47;2.57;;;;;;;19.17;71.89;100130.47;5088662;28;20167;-59
2023/08/31 08:33:00;;;;;;;5.63;2.30;;;;;;;19.22;71.29;100133.03;5093833;28;20186;-60
2023/08/31 08:35:25;;;;;;;7.83;2.40;;;;;;;19.14;70.73;100133.31;5087357;28;20178;-60
2023/08/31 08:37:52;;;;;;;6.60;2.33;;;;;;;19.16;69.81;100140.28;5088361;28;20179;-60
2023/08/31 08:40:18;;;;;;;7.43;2.00;;;;;;;19.16;69.97;100139.47;5094074;28;20186;-59
2023/08/31 08:42:43;;;;;;;9.60;2.80;;;;;;;19.17;69.63;100139.06;5091173;28;20468;-59
2023/08/31 08:45:17;;;;;;;4.13;2.57;;;;;;;19.25;68.78;100142.88;5090662;28;20186;-59
2023/08/31 08:47:43;;;;;;;5.90;2.07;;;;;;;19.27;68.78;100146.19;5054379;28;20182;-59
2023/08/31 08:50:12;;;;;;;7.10;2.07;;;;;;;19.25;68.46;100143.72;5087104;28;20468;-59
2023/08/31 08:52:41;;;;;;;5.30;2.37;;;;;;;19.21;68.54;100142.00;5090231;28;20427;-60
2023/08/31 08:55:08;;;;;;;7.40;2.57;;;;;;;19.26;68.04;100145.34;5058354;28;20427;-59
2023/08/31 08:57:34;;;;;;;7.53;2.63;;;;;;;19.30;67.72;100151.13;5078490;28;21009;-58
2023/08/31 08:59:59;;;;;;;6.63;2.13;;;;;;;19.32;67.67;100143.78;5119879;28;20419;-59
2023/08/31 09:02:25;;;;;;;10.83;3.57;;;;;;;19.27;66.80;100149.06;5112001;28;20481;-60
2023/08/31 09:04:54;;;;;;;5.10;2.30;;;;;;;19.21;67.55;100136.28;5086797;28;20531;-59
2023/08/31 09:07:21;;;;;;;8.53;2.63;;;;;;;19.21;67.46;100139.94;5073685;28;20285;-59
2023/08/31 09:09:53;;;;;;;6.60;2.73;;;;;;;19.26;67.35;100139.63;5093645;28;20934;-59
2023/08/31 09:12:22;;;;;;;4.83;2.00;;;;;;;19.26;66.70;100139.63;5093156;28;20465;-59
2023/08/31 09:15:17;;;;;;;4.93;2.43;;;;;;;19.23;66.77;100146.16;5093867;28;20438;-59
2023/08/31 09:17:44;;;;;;;5.37;2.43;;;;;;;19.21;65.40;100142.00;5080802;28;21015;-59
2023/08/31 09:20:09;;;;;;;5.40;2.10;;;;;;;19.23;65.77;100134.72;5094970;28;20945;-58
2023/08/31 09:22:35;;;;;;;7.23;2.57;;;;;;;19.30;64.33;100143.38;5107606;28;20471;-59
2023/08/31 09:25:00;;;;;;;6.13;2.70;;;;;;;19.29;65.23;100141.72;5096311;28;20202;-59
2023/08/31 09:27:26;;;;;;;7.87;2.63;;;;;;;19.25;63.37;100143.72;5097607;27;20637;-59
2023/08/31 09:29:55;;;;;;;6.70;2.17;;;;;;;19.33;63.69;100134.00;5095949;27;20173;-58
2023/08/31 09:32:20;;;;;;;7.53;3.00;;;;;;;19.34;63.30;100140.53;5081074;28;20308;-60
2023/08/31 09:34:45;;;;;;;10.67;2.90;;;;;;;19.35;62.96;100134.44;5090850;28;20443;-59
2023/08/31 09:37:11;;;;;;;6.27;2.13;;;;;;;19.39;62.74;100137.34;5091463;28;20232;-60
2023/08/31 09:39:40;;;;;;;7.17;2.37;;;;;;;19.37;61.60;100128.31;5088284;28;20196;-59
2023/08/31 09:42:06;;;;;;;8.30;2.23;;;;;;;19.42;61.74;100137.38;5070165;28;20273;-60
2023/08/31 09:44:31;;;;;;;6.10;2.10;;;;;;;19.45;61.21;100139.47;5084960;28;20473;-59
2023/08/31 09:46:57;;;;;;;8.93;2.80;;;;;;;19.43;59.77;100136.19;5075067;28;20632;-59
2023/08/31 09:49:23;;;;;;;8.07;2.10;;;;;;;19.40;60.02;100136.94;5104674;28;20197;-59
2023/08/31 09:51:49;;;;;;;7.10;2.50;;;;;;;19.40;59.96;100136.13;5102577;28;20176;-58
2023/08/31 09:54:18;;;;;;;6.40;2.57;;;;;;;19.36;59.94;100147.53;5096431;28;20189;-59
2023/08/31 09:56:46;;;;;;;9.33;2.67;;;;;;;19.37;59.54;100148.38;5091468;28;20428;-58
2023/08/31 09:59:12;;;;;;;4.47;2.07;;;;;;;19.32;59.29;100149.53;5108901;28;21186;-58
2023/08/31 10:01:37;;;;;;;4.90;2.00;;;;;;;19.38;59.71;100139.41;5094442;28;20487;-59
2023/08/31 10:04:05;;;;;;;13.43;2.87;;;;;;;19.38;59.58;100141.41;5092392;28;21218;-59
2023/08/31 10:06:31;;;;;;;7.20;2.70;;;;;;;19.40;59.28;100154.13;5099995;28;20194;-59
2023/08/31 10:08:57;;;;;;;7.07;2.00;;;;;;;19.40;59.76;100144.69;5078743;28;20454;-60
2023/08/31 10:11:25;;;;;;;5.03;2.30;;;;;;;19.37;59.87;100146.31;5069784;28;20186;-59
2023/08/31 10:13:50;;;;;;;7.50;2.17;;;;;;;19.36;60.35;100144.66;5107216;28;20189;-59
2023/08/31 10:16:17;;;;;;;5.00;2.13;;;;;;;19.36;59.92;100144.66;5079087;28;20478;-59
2023/08/31 10:18:42;;;;;;;8.10;2.20;;;;;;;19.36;60.36;100147.53;5090584;28;20178;-60
2023/08/31 10:21:08;;;;;;;7.10;2.67;;;;;;;19.34;60.29;100147.09;5102396;28;20435;-60
2023/08/31 10:23:35;;;;;;;6.30;2.20;;;;;;;19.36;60.90;100143.88;5072321;28;20621;-59
2023/08/31 10:26:01;;;;;;;4.20;2.00;;;;;;;19.38;60.95;100150.00;5087329;28;20237;-59
2023/08/31 10:28:30;;;;;;;8.43;2.63;;;;;;;19.35;60.91;100137.28;5090909;27;20473;-59
2023/08/31 10:31:17;;;;;;;5.13;2.17;;;;;;;19.37;61.11;100137.72;5089417;28;20257;-59
2023/08/31 10:33:47;;;;;;;5.70;1.97;;;;;;;19.34;60.57;100138.53;5077599;28;20447;-59
2023/08/31 10:36:16;;;;;;;5.47;2.07;;;;;;;19.39;60.90;100132.44;5070886;28;20409;-60
2023/08/31 10:38:46;;;;;;;8.80;2.43;;;;;;;19.39;60.91;100134.47;5089935;28;20428;-58
2023/08/31 10:41:11;;;;;;;6.93;2.30;;;;;;;19.41;60.14;100132.88;5089574;28;20468;-60
2023/08/31 10:43:46;;;;;;;10.67;2.13;;;;;;;19.46;60.74;100128.84;5091915;27;20517;-59
2023/08/31 10:46:25;;;;;;;7.73;1.83;;;;;;;19.50;60.87;100132.56;5102757;28;20568;-59
2023/08/31 10:48:52;;;;;;;5.63;2.20;;;;;;;19.44;59.73;100134.97;5098092;28;20438;-60
2023/08/31 10:51:20;;;;;;;4.03;2.13;;;;;;;19.43;60.37;100123.91;5106741;27;20452;-58
2023/08/31 10:53:46;;;;;;;7.83;2.60;;;;;;;19.43;60.59;100116.13;5089805;28;20433;-59
2023/08/31 10:56:11;;;;;;;8.83;2.50;;;;;;;19.48;60.58;100124.38;5093738;28;20447;-60
2023/08/31 10:58:37;;;;;;;5.17;2.47;;;;;;;19.42;60.63;100117.31;5100615;28;21133;-59
2023/08/31 11:01:03;;;;;;;9.03;2.40;;;;;;;19.45;60.67;100110.84;5089090;28;20780;-59
2023/08/31 11:03:30;;;;;;;8.43;2.07;;;;;;;19.39;60.78;100117.28;5091655;27;20184;-60
2023/08/31 11:05:55;;;;;;;4.90;2.30;;;;;;;19.44;60.96;100120.66;5089348;28;20464;-59
2023/08/31 11:08:24;;;;;;;5.60;2.30;;;;;;;19.42;61.17;100125.13;5100394;27;20446;-60
2023/08/31 11:10:50;;;;;;;6.60;1.90;;;;;;;19.45;60.68;100119.41;5110010;28;20644;-59
2023/08/31 11:13:18;;;;;;;10.10;2.70;;;;;;;19.43;61.25;100127.59;5083288;28;20455;-58
2023/08/31 11:15:46;;;;;;;6.00;2.40;;;;;;;19.45;61.54;100118.59;5075875;28;20495;-59
2023/08/31 11:18:12;;;;;;;5.03;2.70;;;;;;;19.42;61.75;100128.78;5068560;28;20451;-59
2023/08/31 11:20:37;;;;;;;9.73;2.50;;;;;;;19.43;61.07;100116.13;5107893;27;20946;-59
2023/08/31 11:23:03;;;;;;;6.63;2.20;;;;;;;19.47;60.94;100108.38;5104754;27;20256;-59
2023/08/31 11:25:30;;;;;;;12.83;2.07;;;;;;;19.47;61.11;100099.81;5100238;28;20185;-59
2023/08/31 11:27:57;;;;;;;5.20;2.20;;;;;;;19.55;61.39;100090.09;5109203;28;20276;-60